WetterOnline ( https://www.wetteronline.ch )

Wetter aktuell Taunus

Aktuelles Wetter: Kleiner Feldberg (802m)

6-stündlich | Neueste Meldungen
Ortszeit Temperatur Wetter
So, 07.06. 8:00 8.1° C leicht bewölkt
So, 07.06. 2:00 7.7° C bedeckt
Sa, 06.06. 20:00 9.5° C wolkenlos
Sa, 06.06. 14:00 7.4° C Sprühregen
Sa, 06.06. 8:00 5.6° C Nebel
Sa, 06.06. 2:00 3.3° C leicht bewölkt
Fr, 05.06. 20:00 5.2° C leichter Regen
Fr, 05.06. 14:00 7.3° C bewölkt
Ortszeit Temperatur Wetter
So, 07.06. 8:30 8.4° C leicht bewölkt
So, 07.06. 8:20 8.4° C leicht bewölkt
So, 07.06. 8:10 8.2° C leicht bewölkt
So, 07.06. 8:00 8.1° C leicht bewölkt
So, 07.06. 7:50 8.1° C leicht bewölkt
So, 07.06. 7:40 7.8° C fast wolkenlos
So, 07.06. 7:30 7.3° C wolkenlos
So, 07.06. 7:00 6.5° C wolkenlos
So, 07.06. 6:30 6.2° C wolkenlos
So, 07.06. 6:00 5.8° C wolkenlos
So, 07.06. 5:30 6.3° C leicht bewölkt
Ortszeit Relative Feuchte Sichtweite
So, 07.06. 8:00 72% 55 km
So, 07.06. 2:00 70% 60 km
Sa, 06.06. 20:00 68% 60 km
Sa, 06.06. 14:00 100% 0.2 km
Sa, 06.06. 8:00 100% <100 m
Sa, 06.06. 2:00 96% 40 km
Fr, 05.06. 20:00 97% 17 km
Fr, 05.06. 14:00 91% 30 km
Ortszeit Relative Feuchte Sichtweite
So, 07.06. 8:30 72% 60 km
So, 07.06. 8:20 72% -
So, 07.06. 8:10 74% -
So, 07.06. 8:00 72% 55 km
So, 07.06. 7:50 72% -
So, 07.06. 7:40 74% -
So, 07.06. 7:30 76% 50 km
So, 07.06. 7:00 84% 60 km
So, 07.06. 6:30 88% 45 km
So, 07.06. 6:00 91% 45 km
So, 07.06. 5:30 86% 50 km
Ortszeit Niederschlagsmenge Niederschlagsart
So, 07.06. 8:00 0.0 l/m2 in 12 Std. -
So, 07.06. 2:00 0.0 l/m2 in 6 Std. -
Sa, 06.06. 20:00 7 l/m2 in 12 Std. Regen
Sa, 06.06. 14:00 3 l/m2 in 6 Std. Regen
Sa, 06.06. 8:00 2 l/m2 in 12 Std. Regen
Sa, 06.06. 2:00 2 l/m2 in 6 Std. Regen
Fr, 05.06. 20:00 6 l/m2 in 12 Std. Regen
Fr, 05.06. 14:00 0.3 l/m2 in 6 Std. Regen
Ortszeit Niederschlagsmenge Niederschlagsart
So, 07.06. 8:30 0.0 l/m2 in 1 Std. -
So, 07.06. 8:20 keine Meldung -
So, 07.06. 8:10 keine Meldung -
So, 07.06. 8:00 0.0 l/m2 in 1 Std. -
So, 07.06. 7:50 keine Meldung -
So, 07.06. 7:40 keine Meldung -
So, 07.06. 7:30 0.0 l/m2 in 1 Std. -
So, 07.06. 7:00 0.0 l/m2 in 1 Std. -
So, 07.06. 6:30 0.0 l/m2 in 1 Std. -
So, 07.06. 6:00 0.0 l/m2 in 1 Std. -
So, 07.06. 5:30 0.0 l/m2 in 1 Std. -
Ortszeit Stärke Spitze Richtung
km/h Bft. km/h Grad Sektor
So, 07.06. 8:00 11 2 29 240° SW
So, 07.06. 2:00 11 2 29 240° SW
Sa, 06.06. 20:00 13 3 44 250° W
Sa, 06.06. 14:00 11 2 40 260° W
Sa, 06.06. 8:00 14 3 36 240° SW
Sa, 06.06. 2:00 17 3 41 280° W
Fr, 05.06. 20:00 20 4 57 290° W
Fr, 05.06. 14:00 18 3 40 210° SW
Ortszeit Stärke Spitze Richtung
km/h Bft. km/h Grad Sektor
So, 07.06. 8:30 11 2 25 240° SW
So, 07.06. 8:20 11 2 - 240° SW
So, 07.06. 8:10 13 3 - 230° SW
So, 07.06. 8:00 11 2 25 240° SW
So, 07.06. 7:50 11 2 - 240° SW
So, 07.06. 7:40 9 2 - 240° SW
So, 07.06. 7:30 11 2 22 240° SW
So, 07.06. 7:00 9 2 26 240° SW
So, 07.06. 6:30 11 2 25 240° SW
So, 07.06. 6:00 14 3 29 230° SW
So, 07.06. 5:30 13 3 28 240° SW
Ortszeit Untergrenze Bedeckung Gattung
total tief tief mittel hoch
So, 07.06. 8:00 8100 m 5/8 0/8 - - -
So, 07.06. 2:00 3300 m 8/8 8/8 - - -
Sa, 06.06. 20:00 - 0/8 0/8 - - -
Sa, 06.06. 14:00 <30 m 7/8 0/8 - - -
Sa, 06.06. 8:00 <30 m 8/8 0/8 - - -
Sa, 06.06. 2:00 630 m 4/8 3/8 - - -
Fr, 05.06. 20:00 30 m 8/8 8/8 - - -
Fr, 05.06. 14:00 480 m 7/8 7/8 - - -
Ortszeit Bedeckungsgrad in Achtel und Wolkenuntergrenze
So, 07.06. 8:30 3(7800m)
So, 07.06. 8:20 3(7800m)
So, 07.06. 8:10 6(7800m)
So, 07.06. 8:00 5(8100m)
So, 07.06. 7:50 5(8100m)
So, 07.06. 7:40 2(8100m)
So, 07.06. 7:30 keine Wolken
So, 07.06. 7:00 keine Wolken
So, 07.06. 6:30 keine Wolken
So, 07.06. 6:00 keine Wolken
So, 07.06. 5:30 1(1800m) 3(4200m)
Ortszeit Stationsdruck (hPa) Tendenz (hPa in 3 Std.)
So, 07.06. 8:00 911 + 0,9
So, 07.06. 2:00 910 - 0,1
Sa, 06.06. 20:00 910 + 0,3
Sa, 06.06. 14:00 908 + 0,8
Sa, 06.06. 8:00 906 + 0,7
Sa, 06.06. 2:00 905 + 0,7
Fr, 05.06. 20:00 902 + 1,1
Fr, 05.06. 14:00 903 - 1,4
Ortszeit Stationsdruck (hPa) Tendenz (hPa in 3 Std.)
So, 07.06. 8:30 912 + 1,1
So, 07.06. 8:20 912 keine Meldung
So, 07.06. 8:10 911 keine Meldung
So, 07.06. 8:00 911 + 0,9
So, 07.06. 7:50 911 keine Meldung
So, 07.06. 7:40 911 keine Meldung
So, 07.06. 7:30 911 + 0,5
So, 07.06. 7:00 911 + 0,4
So, 07.06. 6:30 911 + 0,4
So, 07.06. 6:00 910 + 0,1
So, 07.06. 5:30 910 + 0,2
Ortszeit Schneehöhe (cm)
So, 07.06. 8:00 -
So, 07.06. 2:00 -
Sa, 06.06. 20:00 -
Sa, 06.06. 14:00 -
Sa, 06.06. 8:00 -
Sa, 06.06. 2:00 -
Fr, 05.06. 20:00 -
Fr, 05.06. 14:00 -
Ortszeit Schneehöhe (cm)
So, 07.06. 8:30 -
So, 07.06. 8:20 -
So, 07.06. 8:10 -
So, 07.06. 8:00 -
So, 07.06. 7:50 -
So, 07.06. 7:40 -
So, 07.06. 7:30 -
So, 07.06. 7:00 -
So, 07.06. 6:30 -
So, 07.06. 6:00 -
So, 07.06. 5:30 -
Link zu dieser Seite / Seite empfehlen

Das Wetter in ...